sensor_id;sensor_type;location;lat;lon;timestamp;temperature;humidity
15105;DHT22;7653;48.994;9.212;2023-04-25T00:00:28;9.40;54.20
15105;DHT22;7653;48.994;9.212;2023-04-25T00:02:54;9.50;52.50
15105;DHT22;7653;48.994;9.212;2023-04-25T00:05:22;9.60;52.90
15105;DHT22;7653;48.994;9.212;2023-04-25T00:07:49;9.60;54.20
15105;DHT22;7653;48.994;9.212;2023-04-25T00:10:15;9.60;54.40
15105;DHT22;7653;48.994;9.212;2023-04-25T00:12:41;9.50;56.80
15105;DHT22;7653;48.994;9.212;2023-04-25T00:15:07;9.40;60.00
15105;DHT22;7653;48.994;9.212;2023-04-25T00:17:33;9.40;60.50
15105;DHT22;7653;48.994;9.212;2023-04-25T00:20:00;9.30;62.80
15105;DHT22;7653;48.994;9.212;2023-04-25T00:22:26;9.30;63.70
15105;DHT22;7653;48.994;9.212;2023-04-25T00:24:52;9.10;64.70
15105;DHT22;7653;48.994;9.212;2023-04-25T00:27:18;9.40;64.80
15105;DHT22;7653;48.994;9.212;2023-04-25T00:29:44;9.40;61.50
15105;DHT22;7653;48.994;9.212;2023-04-25T00:32:10;9.40;60.30
15105;DHT22;7653;48.994;9.212;2023-04-25T00:34:36;9.40;59.10
15105;DHT22;7653;48.994;9.212;2023-04-25T00:37:01;9.30;59.40
15105;DHT22;7653;48.994;9.212;2023-04-25T00:39:27;9.40;59.30
15105;DHT22;7653;48.994;9.212;2023-04-25T00:41:54;9.40;58.40
15105;DHT22;7653;48.994;9.212;2023-04-25T00:44:20;9.50;57.80
15105;DHT22;7653;48.994;9.212;2023-04-25T00:46:47;9.50;56.50
15105;DHT22;7653;48.994;9.212;2023-04-25T00:49:13;9.50;56.60
15105;DHT22;7653;48.994;9.212;2023-04-25T00:51:41;9.40;56.40
15105;DHT22;7653;48.994;9.212;2023-04-25T00:54:07;9.50;56.20
15105;DHT22;7653;48.994;9.212;2023-04-25T00:56:33;9.40;56.50
15105;DHT22;7653;48.994;9.212;2023-04-25T00:58:58;9.20;58.00
15105;DHT22;7653;48.994;9.212;2023-04-25T01:01:24;9.20;57.40
15105;DHT22;7653;48.994;9.212;2023-04-25T01:03:50;9.20;56.50
15105;DHT22;7653;48.994;9.212;2023-04-25T01:06:16;9.30;55.30
15105;DHT22;7653;48.994;9.212;2023-04-25T01:08:42;9.30;54.30
15105;DHT22;7653;48.994;9.212;2023-04-25T01:11:08;9.30;54.60
15105;DHT22;7653;48.994;9.212;2023-04-25T01:13:34;9.30;55.30
15105;DHT22;7653;48.994;9.212;2023-04-25T01:16:01;9.30;54.50
15105;DHT22;7653;48.994;9.212;2023-04-25T01:18:27;9.00;57.70
15105;DHT22;7653;48.994;9.212;2023-04-25T01:20:53;9.10;57.20
15105;DHT22;7653;48.994;9.212;2023-04-25T01:23:20;9.20;56.60
15105;DHT22;7653;48.994;9.212;2023-04-25T01:25:47;9.00;59.00
15105;DHT22;7653;48.994;9.212;2023-04-25T01:28:13;9.00;59.30
15105;DHT22;7653;48.994;9.212;2023-04-25T01:30:39;9.00;58.80
15105;DHT22;7653;48.994;9.212;2023-04-25T01:33:07;9.10;57.60
15105;DHT22;7653;48.994;9.212;2023-04-25T01:35:33;9.10;58.30
15105;DHT22;7653;48.994;9.212;2023-04-25T01:37:59;9.00;58.80
15105;DHT22;7653;48.994;9.212;2023-04-25T01:40:27;9.00;60.00
15105;DHT22;7653;48.994;9.212;2023-04-25T01:42:53;9.10;59.50
15105;DHT22;7653;48.994;9.212;2023-04-25T01:45:19;9.10;60.00
15105;DHT22;7653;48.994;9.212;2023-04-25T01:47:44;9.20;60.10
15105;DHT22;7653;48.994;9.212;2023-04-25T01:50:15;9.00;60.80
15105;DHT22;7653;48.994;9.212;2023-04-25T01:52:41;9.10;59.40
15105;DHT22;7653;48.994;9.212;2023-04-25T01:55:07;9.00;58.70
15105;DHT22;7653;48.994;9.212;2023-04-25T01:57:32;9.00;60.00
15105;DHT22;7653;48.994;9.212;2023-04-25T02:00:00;9.00;60.00
15105;DHT22;7653;48.994;9.212;2023-04-25T02:02:26;9.10;58.90
15105;DHT22;7653;48.994;9.212;2023-04-25T02:04:52;9.00;58.80
15105;DHT22;7653;48.994;9.212;2023-04-25T02:07:18;9.10;58.50
15105;DHT22;7653;48.994;9.212;2023-04-25T02:09:43;9.20;57.30
15105;DHT22;7653;48.994;9.212;2023-04-25T02:12:10;9.20;56.50
15105;DHT22;7653;48.994;9.212;2023-04-25T02:14:36;9.10;57.30
15105;DHT22;7653;48.994;9.212;2023-04-25T02:17:02;9.00;58.40
15105;DHT22;7653;48.994;9.212;2023-04-25T02:19:28;8.90;59.30
15105;DHT22;7653;48.994;9.212;2023-04-25T02:21:53;8.70;60.50
15105;DHT22;7653;48.994;9.212;2023-04-25T02:24:19;8.70;61.50
15105;DHT22;7653;48.994;9.212;2023-04-25T02:26:45;8.60;64.20
15105;DHT22;7653;48.994;9.212;2023-04-25T02:29:12;8.50;65.30
15105;DHT22;7653;48.994;9.212;2023-04-25T02:31:38;8.50;66.80
15105;DHT22;7653;48.994;9.212;2023-04-25T02:34:03;8.60;68.60
15105;DHT22;7653;48.994;9.212;2023-04-25T02:36:30;8.60;69.30
15105;DHT22;7653;48.994;9.212;2023-04-25T02:38:57;8.60;71.00
15105;DHT22;7653;48.994;9.212;2023-04-25T02:41:23;8.60;71.80
15105;DHT22;7653;48.994;9.212;2023-04-25T02:43:48;8.60;70.50
15105;DHT22;7653;48.994;9.212;2023-04-25T02:46:14;8.70;66.70
15105;DHT22;7653;48.994;9.212;2023-04-25T02:48:40;8.70;64.70
15105;DHT22;7653;48.994;9.212;2023-04-25T02:51:05;8.80;63.90
15105;DHT22;7653;48.994;9.212;2023-04-25T02:53:31;8.90;63.10
15105;DHT22;7653;48.994;9.212;2023-04-25T02:55:57;8.90;62.30
15105;DHT22;7653;48.994;9.212;2023-04-25T02:58:24;8.90;61.00
15105;DHT22;7653;48.994;9.212;2023-04-25T03:00:50;8.90;59.40
15105;DHT22;7653;48.994;9.212;2023-04-25T03:03:16;9.00;59.10
15105;DHT22;7653;48.994;9.212;2023-04-25T03:05:43;9.00;58.70
15105;DHT22;7653;48.994;9.212;2023-04-25T03:08:09;8.90;59.90
15105;DHT22;7653;48.994;9.212;2023-04-25T03:10:35;8.90;59.90
15105;DHT22;7653;48.994;9.212;2023-04-25T03:13:00;8.80;58.80
15105;DHT22;7653;48.994;9.212;2023-04-25T03:15:26;8.80;58.20
15105;DHT22;7653;48.994;9.212;2023-04-25T03:17:52;8.80;57.40
15105;DHT22;7653;48.994;9.212;2023-04-25T03:20:17;8.80;57.70
15105;DHT22;7653;48.994;9.212;2023-04-25T03:22:43;8.90;57.50
15105;DHT22;7653;48.994;9.212;2023-04-25T03:25:10;8.90;57.40
15105;DHT22;7653;48.994;9.212;2023-04-25T03:27:35;8.90;57.30
15105;DHT22;7653;48.994;9.212;2023-04-25T03:30:01;8.80;56.80
15105;DHT22;7653;48.994;9.212;2023-04-25T03:32:26;8.80;57.10
15105;DHT22;7653;48.994;9.212;2023-04-25T03:34:52;8.80;56.80
15105;DHT22;7653;48.994;9.212;2023-04-25T03:37:18;8.80;57.90
15105;DHT22;7653;48.994;9.212;2023-04-25T03:39:43;8.80;57.30
15105;DHT22;7653;48.994;9.212;2023-04-25T03:42:09;8.80;57.90
15105;DHT22;7653;48.994;9.212;2023-04-25T03:44:35;8.80;58.10
15105;DHT22;7653;48.994;9.212;2023-04-25T03:47:00;8.80;59.00
15105;DHT22;7653;48.994;9.212;2023-04-25T03:49:26;8.80;59.90
15105;DHT22;7653;48.994;9.212;2023-04-25T03:51:51;8.80;59.50
15105;DHT22;7653;48.994;9.212;2023-04-25T03:54:17;8.70;60.70
15105;DHT22;7653;48.994;9.212;2023-04-25T03:56:43;8.60;60.10
15105;DHT22;7653;48.994;9.212;2023-04-25T03:59:08;8.80;59.80
15105;DHT22;7653;48.994;9.212;2023-04-25T04:01:34;8.80;59.30
15105;DHT22;7653;48.994;9.212;2023-04-25T04:04:00;8.80;59.90
15105;DHT22;7653;48.994;9.212;2023-04-25T04:06:26;8.90;59.90
15105;DHT22;7653;48.994;9.212;2023-04-25T04:08:52;8.90;59.20
15105;DHT22;7653;48.994;9.212;2023-04-25T04:11:17;8.90;59.60
15105;DHT22;7653;48.994;9.212;2023-04-25T04:13:43;8.80;59.80
15105;DHT22;7653;48.994;9.212;2023-04-25T04:16:09;8.70;60.40
15105;DHT22;7653;48.994;9.212;2023-04-25T04:18:34;8.60;60.00
15105;DHT22;7653;48.994;9.212;2023-04-25T04:21:01;8.70;61.10
15105;DHT22;7653;48.994;9.212;2023-04-25T04:23:26;8.70;61.10
15105;DHT22;7653;48.994;9.212;2023-04-25T04:25:53;8.80;60.40
15105;DHT22;7653;48.994;9.212;2023-04-25T04:28:19;8.70;59.70
15105;DHT22;7653;48.994;9.212;2023-04-25T04:30:45;8.70;59.70
15105;DHT22;7653;48.994;9.212;2023-04-25T04:33:11;8.70;60.40
15105;DHT22;7653;48.994;9.212;2023-04-25T04:35:37;8.70;59.80
15105;DHT22;7653;48.994;9.212;2023-04-25T04:38:03;8.70;59.70
15105;DHT22;7653;48.994;9.212;2023-04-25T04:40:29;8.80;59.80
15105;DHT22;7653;48.994;9.212;2023-04-25T04:42:56;8.70;57.90
15105;DHT22;7653;48.994;9.212;2023-04-25T04:45:22;8.70;57.20
15105;DHT22;7653;48.994;9.212;2023-04-25T04:47:49;8.70;58.10
15105;DHT22;7653;48.994;9.212;2023-04-25T04:50:15;8.70;59.60
15105;DHT22;7653;48.994;9.212;2023-04-25T04:52:41;8.80;59.80
15105;DHT22;7653;48.994;9.212;2023-04-25T04:55:08;8.80;57.00
15105;DHT22;7653;48.994;9.212;2023-04-25T04:57:34;8.70;57.50
15105;DHT22;7653;48.994;9.212;2023-04-25T05:00:00;8.70;58.40
15105;DHT22;7653;48.994;9.212;2023-04-25T05:02:26;8.60;59.60
15105;DHT22;7653;48.994;9.212;2023-04-25T05:04:52;8.60;58.70
15105;DHT22;7653;48.994;9.212;2023-04-25T05:07:18;8.60;59.10
15105;DHT22;7653;48.994;9.212;2023-04-25T05:09:44;8.60;59.40
15105;DHT22;7653;48.994;9.212;2023-04-25T05:12:10;8.60;57.30
15105;DHT22;7653;48.994;9.212;2023-04-25T05:14:36;8.60;57.60
15105;DHT22;7653;48.994;9.212;2023-04-25T05:17:01;8.60;57.60
15105;DHT22;7653;48.994;9.212;2023-04-25T05:19:30;8.50;59.60
15105;DHT22;7653;48.994;9.212;2023-04-25T05:21:55;8.50;57.80
15105;DHT22;7653;48.994;9.212;2023-04-25T05:24:21;8.50;58.20
15105;DHT22;7653;48.994;9.212;2023-04-25T05:26:47;8.60;57.70
15105;DHT22;7653;48.994;9.212;2023-04-25T05:29:12;8.60;56.60
15105;DHT22;7653;48.994;9.212;2023-04-25T05:31:38;8.60;56.20
15105;DHT22;7653;48.994;9.212;2023-04-25T05:34:03;8.50;57.90
15105;DHT22;7653;48.994;9.212;2023-04-25T05:36:29;8.60;56.50
15105;DHT22;7653;48.994;9.212;2023-04-25T05:38:56;8.60;56.00
15105;DHT22;7653;48.994;9.212;2023-04-25T05:41:30;8.60;57.20
15105;DHT22;7653;48.994;9.212;2023-04-25T05:44:02;8.60;56.40
15105;DHT22;7653;48.994;9.212;2023-04-25T05:46:28;8.60;56.50
15105;DHT22;7653;48.994;9.212;2023-04-25T05:48:53;8.60;56.10
15105;DHT22;7653;48.994;9.212;2023-04-25T05:51:19;8.60;55.80
15105;DHT22;7653;48.994;9.212;2023-04-25T05:53:44;8.80;55.90
15105;DHT22;7653;48.994;9.212;2023-04-25T05:56:10;8.70;54.20
15105;DHT22;7653;48.994;9.212;2023-04-25T05:58:36;8.70;55.60
15105;DHT22;7653;48.994;9.212;2023-04-25T06:01:02;8.80;54.40
15105;DHT22;7653;48.994;9.212;2023-04-25T06:03:28;8.90;53.80
15105;DHT22;7653;48.994;9.212;2023-04-25T06:05:53;8.90;53.30
15105;DHT22;7653;48.994;9.212;2023-04-25T06:08:19;8.90;53.90
15105;DHT22;7653;48.994;9.212;2023-04-25T06:10:45;9.00;53.60
15105;DHT22;7653;48.994;9.212;2023-04-25T06:13:10;9.10;52.30
15105;DHT22;7653;48.994;9.212;2023-04-25T06:15:36;9.10;51.70
15105;DHT22;7653;48.994;9.212;2023-04-25T06:18:02;9.20;50.90
15105;DHT22;7653;48.994;9.212;2023-04-25T06:20:28;9.40;50.90
15105;DHT22;7653;48.994;9.212;2023-04-25T06:22:53;9.60;50.20
15105;DHT22;7653;48.994;9.212;2023-04-25T06:25:19;9.90;49.20
15105;DHT22;7653;48.994;9.212;2023-04-25T06:27:45;10.00;45.60
15105;DHT22;7653;48.994;9.212;2023-04-25T06:30:11;10.10;45.20
15105;DHT22;7653;48.994;9.212;2023-04-25T06:32:40;10.30;45.90
15105;DHT22;7653;48.994;9.212;2023-04-25T06:35:06;10.30;44.90
15105;DHT22;7653;48.994;9.212;2023-04-25T06:37:32;10.80;41.30
15105;DHT22;7653;48.994;9.212;2023-04-25T06:39:57;11.00;40.80
15105;DHT22;7653;48.994;9.212;2023-04-25T06:42:23;10.30;41.00
15105;DHT22;7653;48.994;9.212;2023-04-25T06:44:49;10.30;41.60
15105;DHT22;7653;48.994;9.212;2023-04-25T06:47:15;10.20;41.40
15105;DHT22;7653;48.994;9.212;2023-04-25T06:49:40;9.70;44.50
15105;DHT22;7653;48.994;9.212;2023-04-25T06:52:07;9.80;47.20
15105;DHT22;7653;48.994;9.212;2023-04-25T06:54:32;9.80;45.90
15105;DHT22;7653;48.994;9.212;2023-04-25T06:56:58;9.50;46.80
15105;DHT22;7653;48.994;9.212;2023-04-25T06:59:26;9.40;48.70
15105;DHT22;7653;48.994;9.212;2023-04-25T07:01:52;9.40;50.90
15105;DHT22;7653;48.994;9.212;2023-04-25T07:04:17;9.40;50.30
15105;DHT22;7653;48.994;9.212;2023-04-25T07:06:43;9.50;49.60
15105;DHT22;7653;48.994;9.212;2023-04-25T07:09:09;9.30;50.70
15105;DHT22;7653;48.994;9.212;2023-04-25T07:11:38;9.60;48.90
15105;DHT22;7653;48.994;9.212;2023-04-25T07:14:03;9.60;48.70
15105;DHT22;7653;48.994;9.212;2023-04-25T07:16:29;9.50;49.80
15105;DHT22;7653;48.994;9.212;2023-04-25T07:18:55;9.40;50.70
15105;DHT22;7653;48.994;9.212;2023-04-25T07:21:21;9.20;52.30
15105;DHT22;7653;48.994;9.212;2023-04-25T07:23:46;9.20;53.80
15105;DHT22;7653;48.994;9.212;2023-04-25T07:26:12;9.20;54.40
15105;DHT22;7653;48.994;9.212;2023-04-25T07:28:38;9.20;55.70
15105;DHT22;7653;48.994;9.212;2023-04-25T07:31:04;9.20;55.30
15105;DHT22;7653;48.994;9.212;2023-04-25T07:33:30;9.20;56.10
15105;DHT22;7653;48.994;9.212;2023-04-25T07:35:56;9.30;55.30
15105;DHT22;7653;48.994;9.212;2023-04-25T07:38:22;9.00;57.10
15105;DHT22;7653;48.994;9.212;2023-04-25T07:40:48;8.90;58.10
15105;DHT22;7653;48.994;9.212;2023-04-25T07:43:14;8.90;58.70
15105;DHT22;7653;48.994;9.212;2023-04-25T07:45:45;9.00;57.30
15105;DHT22;7653;48.994;9.212;2023-04-25T07:48:16;9.00;58.00
15105;DHT22;7653;48.994;9.212;2023-04-25T07:50:41;9.10;57.00
15105;DHT22;7653;48.994;9.212;2023-04-25T07:53:07;8.80;59.80
15105;DHT22;7653;48.994;9.212;2023-04-25T07:55:32;9.10;58.70
15105;DHT22;7653;48.994;9.212;2023-04-25T07:57:58;9.20;57.80
15105;DHT22;7653;48.994;9.212;2023-04-25T08:00:24;9.20;55.70
15105;DHT22;7653;48.994;9.212;2023-04-25T08:02:49;9.00;58.70
15105;DHT22;7653;48.994;9.212;2023-04-25T08:05:16;9.00;58.70
15105;DHT22;7653;48.994;9.212;2023-04-25T08:07:42;9.10;59.80
15105;DHT22;7653;48.994;9.212;2023-04-25T08:10:09;9.10;56.70
15105;DHT22;7653;48.994;9.212;2023-04-25T08:12:35;9.10;53.90
15105;DHT22;7653;48.994;9.212;2023-04-25T08:15:00;8.90;56.00
15105;DHT22;7653;48.994;9.212;2023-04-25T08:17:26;9.10;57.40
15105;DHT22;7653;48.994;9.212;2023-04-25T08:19:52;9.20;55.60
15105;DHT22;7653;48.994;9.212;2023-04-25T08:22:18;9.30;54.30
15105;DHT22;7653;48.994;9.212;2023-04-25T08:24:44;9.30;53.90
15105;DHT22;7653;48.994;9.212;2023-04-25T08:27:09;9.20;55.00
15105;DHT22;7653;48.994;9.212;2023-04-25T08:29:35;9.40;52.50
15105;DHT22;7653;48.994;9.212;2023-04-25T08:32:01;9.40;53.00
15105;DHT22;7653;48.994;9.212;2023-04-25T08:34:26;9.50;50.20
15105;DHT22;7653;48.994;9.212;2023-04-25T08:36:52;9.50;51.00
15105;DHT22;7653;48.994;9.212;2023-04-25T08:39:18;9.50;50.90
15105;DHT22;7653;48.994;9.212;2023-04-25T08:41:44;9.70;50.80
15105;DHT22;7653;48.994;9.212;2023-04-25T08:44:11;9.80;48.70
15105;DHT22;7653;48.994;9.212;2023-04-25T08:46:38;10.00;45.10
15105;DHT22;7653;48.994;9.212;2023-04-25T08:49:06;9.80;46.80
15105;DHT22;7653;48.994;9.212;2023-04-25T08:51:32;10.00;46.50
15105;DHT22;7653;48.994;9.212;2023-04-25T08:54:11;10.20;45.80
15105;DHT22;7653;48.994;9.212;2023-04-25T08:56:44;10.00;46.20
15105;DHT22;7653;48.994;9.212;2023-04-25T08:59:13;9.90;49.10
15105;DHT22;7653;48.994;9.212;2023-04-25T09:01:39;10.00;49.10
15105;DHT22;7653;48.994;9.212;2023-04-25T09:04:05;10.00;47.10
15105;DHT22;7653;48.994;9.212;2023-04-25T09:06:31;9.60;49.90
15105;DHT22;7653;48.994;9.212;2023-04-25T09:09:15;9.50;52.30
15105;DHT22;7653;48.994;9.212;2023-04-25T09:11:41;9.60;56.80
15105;DHT22;7653;48.994;9.212;2023-04-25T09:17:01;9.80;59.20
15105;DHT22;7653;48.994;9.212;2023-04-25T09:19:32;9.20;62.90
15105;DHT22;7653;48.994;9.212;2023-04-25T09:21:59;9.10;69.70
15105;DHT22;7653;48.994;9.212;2023-04-25T09:27:10;8.90;71.50
15105;DHT22;7653;48.994;9.212;2023-04-25T09:29:38;9.20;74.40
15105;DHT22;7653;48.994;9.212;2023-04-25T09:35:00;9.00;63.70
15105;DHT22;7653;48.994;9.212;2023-04-25T09:37:30;9.10;60.10
15105;DHT22;7653;48.994;9.212;2023-04-25T09:39:59;9.20;61.60
15105;DHT22;7653;48.994;9.212;2023-04-25T09:42:29;9.60;59.30
15105;DHT22;7653;48.994;9.212;2023-04-25T09:44:57;10.00;51.00
15105;DHT22;7653;48.994;9.212;2023-04-25T09:47:24;10.30;52.80
15105;DHT22;7653;48.994;9.212;2023-04-25T09:49:54;10.60;47.00
15105;DHT22;7653;48.994;9.212;2023-04-25T09:52:24;10.50;48.10
15105;DHT22;7653;48.994;9.212;2023-04-25T09:54:51;10.60;48.60
15105;DHT22;7653;48.994;9.212;2023-04-25T09:57:21;10.90;48.20
15105;DHT22;7653;48.994;9.212;2023-04-25T09:59:49;10.80;51.10
15105;DHT22;7653;48.994;9.212;2023-04-25T10:02:18;10.60;49.10
15105;DHT22;7653;48.994;9.212;2023-04-25T10:04:51;10.40;50.70
15105;DHT22;7653;48.994;9.212;2023-04-25T10:07:20;10.00;52.80
15105;DHT22;7653;48.994;9.212;2023-04-25T10:09:49;9.70;58.80
15105;DHT22;7653;48.994;9.212;2023-04-25T10:12:17;9.40;65.50
15105;DHT22;7653;48.994;9.212;2023-04-25T10:14:44;9.20;70.50
15105;DHT22;7653;48.994;9.212;2023-04-25T10:17:10;8.90;72.00
15105;DHT22;7653;48.994;9.212;2023-04-25T10:19:39;8.60;77.70
15105;DHT22;7653;48.994;9.212;2023-04-25T10:22:13;8.40;72.00
15105;DHT22;7653;48.994;9.212;2023-04-25T10:24:40;8.70;71.20
15105;DHT22;7653;48.994;9.212;2023-04-25T10:27:06;8.80;74.20
15105;DHT22;7653;48.994;9.212;2023-04-25T10:29:32;9.00;71.10
15105;DHT22;7653;48.994;9.212;2023-04-25T10:31:58;9.30;66.60
15105;DHT22;7653;48.994;9.212;2023-04-25T10:34:25;9.00;63.60
15105;DHT22;7653;48.994;9.212;2023-04-25T10:37:03;9.10;64.40
15105;DHT22;7653;48.994;9.212;2023-04-25T10:39:29;9.10;70.40
15105;DHT22;7653;48.994;9.212;2023-04-25T10:41:58;8.90;70.90
15105;DHT22;7653;48.994;9.212;2023-04-25T10:44:30;9.10;71.10
15105;DHT22;7653;48.994;9.212;2023-04-25T10:46:56;9.30;71.90
15105;DHT22;7653;48.994;9.212;2023-04-25T10:49:33;9.40;73.70
15105;DHT22;7653;48.994;9.212;2023-04-25T10:52:12;9.40;74.40
15105;DHT22;7653;48.994;9.212;2023-04-25T10:54:42;9.60;65.50
15105;DHT22;7653;48.994;9.212;2023-04-25T11:00:20;8.90;65.70
15105;DHT22;7653;48.994;9.212;2023-04-25T11:05:27;8.80;72.10
15105;DHT22;7653;48.994;9.212;2023-04-25T11:07:55;8.80;69.40
15105;DHT22;7653;48.994;9.212;2023-04-25T11:10:28;8.90;68.50
15105;DHT22;7653;48.994;9.212;2023-04-25T11:12:55;9.10;69.80
15105;DHT22;7653;48.994;9.212;2023-04-25T11:15:21;9.10;71.70
15105;DHT22;7653;48.994;9.212;2023-04-25T11:17:46;9.20;70.90
15105;DHT22;7653;48.994;9.212;2023-04-25T11:20:15;9.30;71.50
15105;DHT22;7653;48.994;9.212;2023-04-25T11:22:41;9.30;69.90
15105;DHT22;7653;48.994;9.212;2023-04-25T11:25:10;9.40;65.20
15105;DHT22;7653;48.994;9.212;2023-04-25T11:27:53;9.40;66.20
15105;DHT22;7653;48.994;9.212;2023-04-25T11:30:20;9.40;67.00
15105;DHT22;7653;48.994;9.212;2023-04-25T11:32:46;9.10;62.10
15105;DHT22;7653;48.994;9.212;2023-04-25T11:35:12;9.20;67.70
15105;DHT22;7653;48.994;9.212;2023-04-25T11:37:42;9.10;63.90
15105;DHT22;7653;48.994;9.212;2023-04-25T11:40:08;9.20;67.10
15105;DHT22;7653;48.994;9.212;2023-04-25T11:42:43;9.30;64.70
15105;DHT22;7653;48.994;9.212;2023-04-25T11:45:09;9.40;64.60
15105;DHT22;7653;48.994;9.212;2023-04-25T11:47:35;9.30;64.90
15105;DHT22;7653;48.994;9.212;2023-04-25T11:50:03;9.20;71.00
15105;DHT22;7653;48.994;9.212;2023-04-25T11:52:39;9.20;67.80
15105;DHT22;7653;48.994;9.212;2023-04-25T11:55:07;9.20;74.30
15105;DHT22;7653;48.994;9.212;2023-04-25T11:57:33;9.20;79.20
15105;DHT22;7653;48.994;9.212;2023-04-25T12:02:35;9.30;77.70
15105;DHT22;7653;48.994;9.212;2023-04-25T12:05:01;9.50;70.10
15105;DHT22;7653;48.994;9.212;2023-04-25T12:07:35;9.40;70.00
15105;DHT22;7653;48.994;9.212;2023-04-25T12:10:05;9.20;75.10
15105;DHT22;7653;48.994;9.212;2023-04-25T12:12:36;9.30;72.50
15105;DHT22;7653;48.994;9.212;2023-04-25T12:15:16;9.40;73.00
15105;DHT22;7653;48.994;9.212;2023-04-25T12:17:46;9.70;67.20
15105;DHT22;7653;48.994;9.212;2023-04-25T12:20:17;10.00;59.70
15105;DHT22;7653;48.994;9.212;2023-04-25T12:22:48;9.90;68.20
15105;DHT22;7653;48.994;9.212;2023-04-25T12:25:40;10.00;64.10
15105;DHT22;7653;48.994;9.212;2023-04-25T12:28:24;10.20;64.80
15105;DHT22;7653;48.994;9.212;2023-04-25T12:33:25;10.20;58.00
15105;DHT22;7653;48.994;9.212;2023-04-25T12:35:52;10.30;63.90
15105;DHT22;7653;48.994;9.212;2023-04-25T12:38:28;10.90;62.40
15105;DHT22;7653;48.994;9.212;2023-04-25T12:40:59;11.20;56.50
15105;DHT22;7653;48.994;9.212;2023-04-25T12:43:25;11.00;56.70
15105;DHT22;7653;48.994;9.212;2023-04-25T12:45:52;10.90;52.20
15105;DHT22;7653;48.994;9.212;2023-04-25T12:48:19;10.90;57.80
15105;DHT22;7653;48.994;9.212;2023-04-25T12:50:45;10.70;60.50
15105;DHT22;7653;48.994;9.212;2023-04-25T12:53:14;10.90;61.80
15105;DHT22;7653;48.994;9.212;2023-04-25T12:55:40;11.20;56.30
15105;DHT22;7653;48.994;9.212;2023-04-25T12:58:06;11.00;54.50
15105;DHT22;7653;48.994;9.212;2023-04-25T13:00:32;11.00;59.70
15105;DHT22;7653;48.994;9.212;2023-04-25T13:02:58;11.10;57.20
15105;DHT22;7653;48.994;9.212;2023-04-25T13:05:25;11.10;55.20
15105;DHT22;7653;48.994;9.212;2023-04-25T13:07:50;10.90;55.70
15105;DHT22;7653;48.994;9.212;2023-04-25T13:10:17;11.00;57.70
15105;DHT22;7653;48.994;9.212;2023-04-25T13:12:43;11.00;53.20
15105;DHT22;7653;48.994;9.212;2023-04-25T13:15:09;10.80;53.80
15105;DHT22;7653;48.994;9.212;2023-04-25T13:17:37;10.90;52.70
15105;DHT22;7653;48.994;9.212;2023-04-25T13:20:06;11.30;54.50
15105;DHT22;7653;48.994;9.212;2023-04-25T13:22:34;11.30;50.20
15105;DHT22;7653;48.994;9.212;2023-04-25T13:25:03;11.20;44.90
15105;DHT22;7653;48.994;9.212;2023-04-25T13:27:28;11.10;46.50
15105;DHT22;7653;48.994;9.212;2023-04-25T13:29:54;10.90;46.80
15105;DHT22;7653;48.994;9.212;2023-04-25T13:32:20;11.00;48.60
15105;DHT22;7653;48.994;9.212;2023-04-25T13:34:45;11.20;48.00
15105;DHT22;7653;48.994;9.212;2023-04-25T13:37:11;11.20;46.50
15105;DHT22;7653;48.994;9.212;2023-04-25T13:39:36;11.10;48.00
15105;DHT22;7653;48.994;9.212;2023-04-25T13:42:02;11.00;41.30
15105;DHT22;7653;48.994;9.212;2023-04-25T13:44:28;10.80;44.80
15105;DHT22;7653;48.994;9.212;2023-04-25T13:46:54;10.90;41.40
15105;DHT22;7653;48.994;9.212;2023-04-25T13:49:20;11.00;46.30
15105;DHT22;7653;48.994;9.212;2023-04-25T13:51:45;11.00;47.30
15105;DHT22;7653;48.994;9.212;2023-04-25T13:54:11;11.10;46.80
15105;DHT22;7653;48.994;9.212;2023-04-25T13:56:37;11.20;47.90
15105;DHT22;7653;48.994;9.212;2023-04-25T13:59:02;11.10;46.60
15105;DHT22;7653;48.994;9.212;2023-04-25T14:01:28;11.10;48.40
15105;DHT22;7653;48.994;9.212;2023-04-25T14:03:56;11.50;48.10
15105;DHT22;7653;48.994;9.212;2023-04-25T14:06:22;12.00;42.40
15105;DHT22;7653;48.994;9.212;2023-04-25T14:08:50;12.10;39.20
15105;DHT22;7653;48.994;9.212;2023-04-25T14:11:15;12.00;40.60
15105;DHT22;7653;48.994;9.212;2023-04-25T14:13:44;11.20;42.60
15105;DHT22;7653;48.994;9.212;2023-04-25T14:16:09;11.40;40.80
15105;DHT22;7653;48.994;9.212;2023-04-25T14:18:35;11.80;37.90
15105;DHT22;7653;48.994;9.212;2023-04-25T14:21:01;12.50;35.50
15105;DHT22;7653;48.994;9.212;2023-04-25T14:23:26;12.70;32.30
15105;DHT22;7653;48.994;9.212;2023-04-25T14:25:52;12.40;36.90
15105;DHT22;7653;48.994;9.212;2023-04-25T14:28:18;11.90;40.00
15105;DHT22;7653;48.994;9.212;2023-04-25T14:30:43;11.60;46.00
15105;DHT22;7653;48.994;9.212;2023-04-25T14:33:09;11.50;43.60
15105;DHT22;7653;48.994;9.212;2023-04-25T14:35:35;11.30;45.80
15105;DHT22;7653;48.994;9.212;2023-04-25T14:38:01;11.40;41.90
15105;DHT22;7653;48.994;9.212;2023-04-25T14:40:26;11.50;42.00
15105;DHT22;7653;48.994;9.212;2023-04-25T14:42:52;11.50;39.30
15105;DHT22;7653;48.994;9.212;2023-04-25T14:45:18;11.80;42.10
15105;DHT22;7653;48.994;9.212;2023-04-25T14:47:43;12.40;41.70
15105;DHT22;7653;48.994;9.212;2023-04-25T14:50:09;13.10;38.40
15105;DHT22;7653;48.994;9.212;2023-04-25T14:52:35;13.50;34.00
15105;DHT22;7653;48.994;9.212;2023-04-25T14:55:01;14.00;29.50
15105;DHT22;7653;48.994;9.212;2023-04-25T14:57:31;14.00;31.10
15105;DHT22;7653;48.994;9.212;2023-04-25T14:59:57;13.60;30.10
15105;DHT22;7653;48.994;9.212;2023-04-25T15:02:24;13.40;31.70
15105;DHT22;7653;48.994;9.212;2023-04-25T15:04:49;13.10;33.40
15105;DHT22;7653;48.994;9.212;2023-04-25T15:07:15;12.50;37.50
15105;DHT22;7653;48.994;9.212;2023-04-25T15:09:41;12.60;36.50
15105;DHT22;7653;48.994;9.212;2023-04-25T15:12:07;12.20;36.90
15105;DHT22;7653;48.994;9.212;2023-04-25T15:14:33;11.80;38.40
15105;DHT22;7653;48.994;9.212;2023-04-25T15:16:59;12.00;38.90
15105;DHT22;7653;48.994;9.212;2023-04-25T15:19:25;12.00;37.40
15105;DHT22;7653;48.994;9.212;2023-04-25T15:21:51;11.90;37.40
15105;DHT22;7653;48.994;9.212;2023-04-25T15:24:17;11.90;37.40
15105;DHT22;7653;48.994;9.212;2023-04-25T15:26:43;12.00;37.40
15105;DHT22;7653;48.994;9.212;2023-04-25T15:29:09;11.90;36.80
15105;DHT22;7653;48.994;9.212;2023-04-25T15:31:35;12.10;36.50
15105;DHT22;7653;48.994;9.212;2023-04-25T15:34:01;12.00;36.70
15105;DHT22;7653;48.994;9.212;2023-04-25T15:36:26;12.10;36.60
15105;DHT22;7653;48.994;9.212;2023-04-25T15:38:52;12.10;36.20
15105;DHT22;7653;48.994;9.212;2023-04-25T15:41:18;12.10;34.80
15105;DHT22;7653;48.994;9.212;2023-04-25T15:43:43;12.00;34.70
15105;DHT22;7653;48.994;9.212;2023-04-25T15:46:11;11.90;35.10
15105;DHT22;7653;48.994;9.212;2023-04-25T15:48:37;11.70;33.10
15105;DHT22;7653;48.994;9.212;2023-04-25T15:51:03;11.60;32.00
15105;DHT22;7653;48.994;9.212;2023-04-25T15:53:29;11.60;31.20
15105;DHT22;7653;48.994;9.212;2023-04-25T15:55:54;11.50;30.60
15105;DHT22;7653;48.994;9.212;2023-04-25T15:58:20;11.40;28.90
15105;DHT22;7653;48.994;9.212;2023-04-25T16:00:46;11.50;28.20
15105;DHT22;7653;48.994;9.212;2023-04-25T16:03:13;11.50;28.70
15105;DHT22;7653;48.994;9.212;2023-04-25T16:05:39;11.40;28.60
15105;DHT22;7653;48.994;9.212;2023-04-25T16:08:05;11.50;29.30
15105;DHT22;7653;48.994;9.212;2023-04-25T16:10:31;11.60;28.10
15105;DHT22;7653;48.994;9.212;2023-04-25T16:12:57;11.60;29.50